sensor_id;sensor_type;location;lat;lon;timestamp;P1;durP1;ratioP1;P2;durP2;ratioP2
8058;SDS011;4072;42.668;23.396;2022-07-23T00:01:39;10.00;;;5.23;;
8058;SDS011;4072;42.668;23.396;2022-07-23T00:04:08;7.17;;;5.10;;
8058;SDS011;4072;42.668;23.396;2022-07-23T00:06:36;6.73;;;5.70;;
8058;SDS011;4072;42.668;23.396;2022-07-23T00:09:04;5.13;;;4.63;;
8058;SDS011;4072;42.668;23.396;2022-07-23T00:11:32;6.33;;;5.10;;
8058;SDS011;4072;42.668;23.396;2022-07-23T00:13:59;5.87;;;5.27;;
8058;SDS011;4072;42.668;23.396;2022-07-23T00:16:30;6.47;;;5.33;;
8058;SDS011;4072;42.668;23.396;2022-07-23T00:18:58;7.10;;;5.50;;
8058;SDS011;4072;42.668;23.396;2022-07-23T00:21:28;7.77;;;5.70;;
8058;SDS011;4072;42.668;23.396;2022-07-23T00:23:56;5.93;;;5.33;;
8058;SDS011;4072;42.668;23.396;2022-07-23T00:26:24;7.47;;;6.20;;
8058;SDS011;4072;42.668;23.396;2022-07-23T00:28:52;7.87;;;6.30;;
8058;SDS011;4072;42.668;23.396;2022-07-23T00:31:20;10.00;;;5.93;;
8058;SDS011;4072;42.668;23.396;2022-07-23T00:33:50;6.30;;;5.70;;
8058;SDS011;4072;42.668;23.396;2022-07-23T00:36:19;8.90;;;5.70;;
8058;SDS011;4072;42.668;23.396;2022-07-23T00:38:47;11.13;;;5.70;;
8058;SDS011;4072;42.668;23.396;2022-07-23T00:41:14;6.90;;;6.10;;
8058;SDS011;4072;42.668;23.396;2022-07-23T00:43:44;6.70;;;5.80;;
8058;SDS011;4072;42.668;23.396;2022-07-23T00:46:13;6.93;;;6.23;;
8058;SDS011;4072;42.668;23.396;2022-07-23T00:48:46;6.33;;;5.60;;
8058;SDS011;4072;42.668;23.396;2022-07-23T00:51:16;7.00;;;6.17;;
8058;SDS011;4072;42.668;23.396;2022-07-23T00:53:44;9.10;;;6.60;;
8058;SDS011;4072;42.668;23.396;2022-07-23T00:56:12;8.13;;;6.87;;
8058;SDS011;4072;42.668;23.396;2022-07-23T00:58:40;9.07;;;6.93;;
8058;SDS011;4072;42.668;23.396;2022-07-23T01:01:11;8.77;;;7.23;;
8058;SDS011;4072;42.668;23.396;2022-07-23T01:03:39;10.20;;;8.17;;
8058;SDS011;4072;42.668;23.396;2022-07-23T01:06:07;9.70;;;7.93;;
8058;SDS011;4072;42.668;23.396;2022-07-23T01:08:36;9.23;;;7.20;;
8058;SDS011;4072;42.668;23.396;2022-07-23T01:11:04;11.67;;;7.97;;
8058;SDS011;4072;42.668;23.396;2022-07-23T01:13:32;13.33;;;7.37;;
8058;SDS011;4072;42.668;23.396;2022-07-23T01:16:00;8.73;;;7.63;;
8058;SDS011;4072;42.668;23.396;2022-07-23T01:18:28;7.57;;;6.17;;
8058;SDS011;4072;42.668;23.396;2022-07-23T01:20:58;8.30;;;6.67;;
8058;SDS011;4072;42.668;23.396;2022-07-23T01:23:27;7.77;;;5.97;;
8058;SDS011;4072;42.668;23.396;2022-07-23T01:25:56;6.00;;;5.40;;
8058;SDS011;4072;42.668;23.396;2022-07-23T01:28:24;6.90;;;6.30;;
8058;SDS011;4072;42.668;23.396;2022-07-23T01:30:52;6.33;;;5.73;;
8058;SDS011;4072;42.668;23.396;2022-07-23T01:33:20;7.77;;;6.03;;
8058;SDS011;4072;42.668;23.396;2022-07-23T01:35:48;8.03;;;6.37;;
8058;SDS011;4072;42.668;23.396;2022-07-23T01:38:16;5.87;;;5.30;;
8058;SDS011;4072;42.668;23.396;2022-07-23T01:40:46;6.97;;;5.50;;
8058;SDS011;4072;42.668;23.396;2022-07-23T01:43:20;7.87;;;6.00;;
8058;SDS011;4072;42.668;23.396;2022-07-23T01:45:50;6.87;;;6.20;;
8058;SDS011;4072;42.668;23.396;2022-07-23T01:48:19;6.20;;;5.60;;
8058;SDS011;4072;42.668;23.396;2022-07-23T01:50:46;8.03;;;5.30;;
8058;SDS011;4072;42.668;23.396;2022-07-23T01:53:14;6.60;;;5.83;;
8058;SDS011;4072;42.668;23.396;2022-07-23T01:55:46;6.80;;;5.80;;
8058;SDS011;4072;42.668;23.396;2022-07-23T01:58:14;6.37;;;5.73;;
8058;SDS011;4072;42.668;23.396;2022-07-23T02:00:42;5.57;;;5.13;;
8058;SDS011;4072;42.668;23.396;2022-07-23T02:03:10;6.33;;;5.70;;
8058;SDS011;4072;42.668;23.396;2022-07-23T02:05:38;7.07;;;5.30;;
8058;SDS011;4072;42.668;23.396;2022-07-23T02:08:06;6.03;;;5.43;;
8058;SDS011;4072;42.668;23.396;2022-07-23T02:10:34;7.03;;;5.83;;
8058;SDS011;4072;42.668;23.396;2022-07-23T02:13:03;8.40;;;6.30;;
8058;SDS011;4072;42.668;23.396;2022-07-23T02:15:31;7.53;;;6.20;;
8058;SDS011;4072;42.668;23.396;2022-07-23T02:17:59;7.43;;;6.23;;
8058;SDS011;4072;42.668;23.396;2022-07-23T02:20:27;7.90;;;5.67;;
8058;SDS011;4072;42.668;23.396;2022-07-23T02:22:56;6.10;;;5.37;;
8058;SDS011;4072;42.668;23.396;2022-07-23T02:25:25;8.53;;;5.70;;
8058;SDS011;4072;42.668;23.396;2022-07-23T02:27:53;9.03;;;5.50;;
8058;SDS011;4072;42.668;23.396;2022-07-23T02:30:24;7.73;;;5.37;;
8058;SDS011;4072;42.668;23.396;2022-07-23T02:32:52;7.17;;;6.43;;
8058;SDS011;4072;42.668;23.396;2022-07-23T02:35:21;9.07;;;5.70;;
8058;SDS011;4072;42.668;23.396;2022-07-23T02:37:48;6.57;;;5.50;;
8058;SDS011;4072;42.668;23.396;2022-07-23T02:40:18;13.30;;;7.50;;
8058;SDS011;4072;42.668;23.396;2022-07-23T02:42:46;8.87;;;6.10;;
8058;SDS011;4072;42.668;23.396;2022-07-23T02:45:14;8.70;;;5.97;;
8058;SDS011;4072;42.668;23.396;2022-07-23T02:47:43;8.77;;;5.93;;
8058;SDS011;4072;42.668;23.396;2022-07-23T02:50:11;6.97;;;5.60;;
8058;SDS011;4072;42.668;23.396;2022-07-23T02:52:39;7.17;;;6.30;;
8058;SDS011;4072;42.668;23.396;2022-07-23T02:55:07;8.33;;;5.37;;
8058;SDS011;4072;42.668;23.396;2022-07-23T02:57:35;9.40;;;6.37;;
8058;SDS011;4072;42.668;23.396;2022-07-23T03:00:04;9.00;;;6.77;;
8058;SDS011;4072;42.668;23.396;2022-07-23T03:02:33;6.63;;;5.93;;
8058;SDS011;4072;42.668;23.396;2022-07-23T03:05:02;7.33;;;6.60;;
8058;SDS011;4072;42.668;23.396;2022-07-23T03:07:30;9.07;;;7.37;;
8058;SDS011;4072;42.668;23.396;2022-07-23T03:09:58;8.47;;;7.67;;
8058;SDS011;4072;42.668;23.396;2022-07-23T03:12:27;7.30;;;6.17;;
8058;SDS011;4072;42.668;23.396;2022-07-23T03:14:55;8.10;;;6.60;;
8058;SDS011;4072;42.668;23.396;2022-07-23T03:17:23;11.73;;;7.10;;
8058;SDS011;4072;42.668;23.396;2022-07-23T03:19:51;8.13;;;7.43;;
8058;SDS011;4072;42.668;23.396;2022-07-23T03:22:21;9.50;;;7.13;;
8058;SDS011;4072;42.668;23.396;2022-07-23T03:24:49;8.93;;;7.40;;
8058;SDS011;4072;42.668;23.396;2022-07-23T03:27:24;9.53;;;7.47;;
8058;SDS011;4072;42.668;23.396;2022-07-23T03:29:53;11.57;;;7.50;;
8058;SDS011;4072;42.668;23.396;2022-07-23T03:32:22;10.60;;;7.10;;
8058;SDS011;4072;42.668;23.396;2022-07-23T03:34:51;10.70;;;7.27;;
8058;SDS011;4072;42.668;23.396;2022-07-23T03:37:20;10.00;;;7.67;;
8058;SDS011;4072;42.668;23.396;2022-07-23T03:39:48;8.97;;;7.03;;
8058;SDS011;4072;42.668;23.396;2022-07-23T03:42:17;11.03;;;7.10;;
8058;SDS011;4072;42.668;23.396;2022-07-23T03:44:45;8.93;;;7.47;;
8058;SDS011;4072;42.668;23.396;2022-07-23T03:47:13;12.00;;;7.30;;
8058;SDS011;4072;42.668;23.396;2022-07-23T03:49:41;8.33;;;7.33;;
8058;SDS011;4072;42.668;23.396;2022-07-23T03:52:09;8.70;;;7.00;;
8058;SDS011;4072;42.668;23.396;2022-07-23T03:54:38;12.17;;;7.20;;
8058;SDS011;4072;42.668;23.396;2022-07-23T03:57:06;13.63;;;6.60;;
8058;SDS011;4072;42.668;23.396;2022-07-23T03:59:34;8.27;;;7.47;;
8058;SDS011;4072;42.668;23.396;2022-07-23T04:02:02;12.63;;;7.50;;
8058;SDS011;4072;42.668;23.396;2022-07-23T04:04:30;9.03;;;6.97;;
8058;SDS011;4072;42.668;23.396;2022-07-23T04:06:58;8.37;;;7.50;;
8058;SDS011;4072;42.668;23.396;2022-07-23T04:09:26;10.07;;;7.30;;
8058;SDS011;4072;42.668;23.396;2022-07-23T04:11:55;12.80;;;7.43;;
8058;SDS011;4072;42.668;23.396;2022-07-23T04:14:23;9.27;;;7.43;;
8058;SDS011;4072;42.668;23.396;2022-07-23T04:16:53;13.43;;;8.07;;
8058;SDS011;4072;42.668;23.396;2022-07-23T04:19:21;8.70;;;7.80;;
8058;SDS011;4072;42.668;23.396;2022-07-23T04:21:50;9.90;;;7.30;;
8058;SDS011;4072;42.668;23.396;2022-07-23T04:24:18;10.60;;;7.77;;
8058;SDS011;4072;42.668;23.396;2022-07-23T04:26:46;8.40;;;7.23;;
8058;SDS011;4072;42.668;23.396;2022-07-23T04:29:18;9.10;;;7.87;;
8058;SDS011;4072;42.668;23.396;2022-07-23T04:31:46;14.10;;;8.40;;
8058;SDS011;4072;42.668;23.396;2022-07-23T04:34:13;9.40;;;8.40;;
8058;SDS011;4072;42.668;23.396;2022-07-23T04:36:41;13.33;;;8.77;;
8058;SDS011;4072;42.668;23.396;2022-07-23T04:39:10;12.83;;;7.90;;
8058;SDS011;4072;42.668;23.396;2022-07-23T04:41:38;13.33;;;8.43;;
8058;SDS011;4072;42.668;23.396;2022-07-23T04:44:06;11.40;;;8.73;;
8058;SDS011;4072;42.668;23.396;2022-07-23T04:46:35;10.53;;;8.23;;
8058;SDS011;4072;42.668;23.396;2022-07-23T04:49:03;11.77;;;8.03;;
8058;SDS011;4072;42.668;23.396;2022-07-23T04:51:34;14.23;;;8.57;;
8058;SDS011;4072;42.668;23.396;2022-07-23T04:54:02;9.20;;;7.47;;
8058;SDS011;4072;42.668;23.396;2022-07-23T04:56:33;8.93;;;7.53;;
8058;SDS011;4072;42.668;23.396;2022-07-23T04:59:01;8.63;;;7.70;;
8058;SDS011;4072;42.668;23.396;2022-07-23T05:01:30;9.15;;;7.85;;
8058;SDS011;4072;42.668;23.396;2022-07-23T05:04:00;11.75;;;7.93;;
8058;SDS011;4072;42.668;23.396;2022-07-23T05:06:27;12.68;;;9.10;;
8058;SDS011;4072;42.668;23.396;2022-07-23T05:08:57;10.02;;;8.07;;
8058;SDS011;4072;42.668;23.396;2022-07-23T05:11:25;10.82;;;8.23;;
8058;SDS011;4072;42.668;23.396;2022-07-23T05:13:55;11.07;;;9.02;;
8058;SDS011;4072;42.668;23.396;2022-07-23T05:16:22;12.45;;;8.88;;
8058;SDS011;4072;42.668;23.396;2022-07-23T05:18:50;14.32;;;8.15;;
8058;SDS011;4072;42.668;23.396;2022-07-23T05:21:20;14.98;;;7.15;;
8058;SDS011;4072;42.668;23.396;2022-07-23T05:23:48;13.25;;;7.35;;
8058;SDS011;4072;42.668;23.396;2022-07-23T05:26:17;10.68;;;7.35;;
8058;SDS011;4072;42.668;23.396;2022-07-23T05:28:47;9.80;;;7.45;;
8058;SDS011;4072;42.668;23.396;2022-07-23T05:31:15;12.30;;;7.57;;
8058;SDS011;4072;42.668;23.396;2022-07-23T05:33:44;10.55;;;8.57;;
8058;SDS011;4072;42.668;23.396;2022-07-23T05:36:12;12.00;;;7.05;;
8058;SDS011;4072;42.668;23.396;2022-07-23T05:38:41;10.07;;;7.82;;
8058;SDS011;4072;42.668;23.396;2022-07-23T05:41:09;10.43;;;7.32;;
8058;SDS011;4072;42.668;23.396;2022-07-23T05:43:38;9.10;;;7.78;;
8058;SDS011;4072;42.668;23.396;2022-07-23T05:46:06;10.10;;;7.35;;
8058;SDS011;4072;42.668;23.396;2022-07-23T05:48:33;13.48;;;7.28;;
8058;SDS011;4072;42.668;23.396;2022-07-23T05:51:01;13.23;;;7.35;;
8058;SDS011;4072;42.668;23.396;2022-07-23T05:53:32;12.85;;;7.15;;
8058;SDS011;4072;42.668;23.396;2022-07-23T05:56:02;8.93;;;7.30;;
8058;SDS011;4072;42.668;23.396;2022-07-23T05:58:30;10.82;;;7.03;;
8058;SDS011;4072;42.668;23.396;2022-07-23T06:00:58;10.32;;;7.30;;
8058;SDS011;4072;42.668;23.396;2022-07-23T06:03:26;11.45;;;7.55;;
8058;SDS011;4072;42.668;23.396;2022-07-23T06:05:54;7.82;;;7.05;;
8058;SDS011;4072;42.668;23.396;2022-07-23T06:08:22;7.90;;;6.95;;
8058;SDS011;4072;42.668;23.396;2022-07-23T06:10:50;10.25;;;7.20;;
8058;SDS011;4072;42.668;23.396;2022-07-23T06:13:20;11.02;;;7.43;;
8058;SDS011;4072;42.668;23.396;2022-07-23T06:15:47;8.50;;;7.50;;
8058;SDS011;4072;42.668;23.396;2022-07-23T06:18:16;11.15;;;7.38;;
8058;SDS011;4072;42.668;23.396;2022-07-23T06:20:44;8.70;;;7.03;;
8058;SDS011;4072;42.668;23.396;2022-07-23T06:23:16;7.72;;;6.70;;
8058;SDS011;4072;42.668;23.396;2022-07-23T06:25:44;9.23;;;7.22;;
8058;SDS011;4072;42.668;23.396;2022-07-23T06:28:11;8.15;;;7.22;;
8058;SDS011;4072;42.668;23.396;2022-07-23T06:30:41;8.48;;;7.60;;
8058;SDS011;4072;42.668;23.396;2022-07-23T06:33:09;12.15;;;6.90;;
8058;SDS011;4072;42.668;23.396;2022-07-23T06:35:38;10.48;;;7.65;;
8058;SDS011;4072;42.668;23.396;2022-07-23T06:38:06;9.65;;;7.03;;
8058;SDS011;4072;42.668;23.396;2022-07-23T06:40:34;11.57;;;7.38;;
8058;SDS011;4072;42.668;23.396;2022-07-23T06:43:02;12.68;;;7.40;;
8058;SDS011;4072;42.668;23.396;2022-07-23T06:45:30;8.98;;;7.60;;
8058;SDS011;4072;42.668;23.396;2022-07-23T06:48:00;11.40;;;7.50;;
8058;SDS011;4072;42.668;23.396;2022-07-23T06:50:28;11.77;;;7.40;;
8058;SDS011;4072;42.668;23.396;2022-07-23T06:52:56;9.60;;;7.70;;
8058;SDS011;4072;42.668;23.396;2022-07-23T06:55:24;9.05;;;8.05;;
8058;SDS011;4072;42.668;23.396;2022-07-23T06:57:52;13.15;;;8.00;;
8058;SDS011;4072;42.668;23.396;2022-07-23T07:00:20;12.20;;;8.45;;
8058;SDS011;4072;42.668;23.396;2022-07-23T07:02:48;14.23;;;9.02;;
8058;SDS011;4072;42.668;23.396;2022-07-23T07:05:19;13.20;;;9.20;;
8058;SDS011;4072;42.668;23.396;2022-07-23T07:07:46;11.35;;;8.05;;
8058;SDS011;4072;42.668;23.396;2022-07-23T07:10:14;10.68;;;8.45;;
8058;SDS011;4072;42.668;23.396;2022-07-23T07:12:44;10.73;;;8.13;;
8058;SDS011;4072;42.668;23.396;2022-07-23T07:15:11;11.23;;;8.02;;
8058;SDS011;4072;42.668;23.396;2022-07-23T07:17:39;9.85;;;7.25;;
8058;SDS011;4072;42.668;23.396;2022-07-23T07:20:09;11.77;;;7.78;;
8058;SDS011;4072;42.668;23.396;2022-07-23T07:22:39;10.45;;;7.65;;
8058;SDS011;4072;42.668;23.396;2022-07-23T07:25:08;11.93;;;8.70;;
8058;SDS011;4072;42.668;23.396;2022-07-23T07:27:36;10.40;;;6.70;;
8058;SDS011;4072;42.668;23.396;2022-07-23T07:30:04;14.07;;;10.65;;
8058;SDS011;4072;42.668;23.396;2022-07-23T07:32:33;11.18;;;7.45;;
8058;SDS011;4072;42.668;23.396;2022-07-23T07:35:23;12.63;;;8.95;;
8058;SDS011;4072;42.668;23.396;2022-07-23T07:37:52;12.20;;;8.13;;
8058;SDS011;4072;42.668;23.396;2022-07-23T07:40:20;8.98;;;8.10;;
8058;SDS011;4072;42.668;23.396;2022-07-23T07:42:50;15.25;;;9.73;;
8058;SDS011;4072;42.668;23.396;2022-07-23T07:45:19;17.98;;;8.88;;
8058;SDS011;4072;42.668;23.396;2022-07-23T07:47:47;17.77;;;10.25;;
8058;SDS011;4072;42.668;23.396;2022-07-23T07:50:15;12.85;;;9.25;;
8058;SDS011;4072;42.668;23.396;2022-07-23T07:52:43;11.32;;;8.77;;
8058;SDS011;4072;42.668;23.396;2022-07-23T07:55:13;18.50;;;10.55;;
8058;SDS011;4072;42.668;23.396;2022-07-23T07:57:41;16.02;;;9.88;;
8058;SDS011;4072;42.668;23.396;2022-07-23T08:00:15;15.68;;;10.43;;
8058;SDS011;4072;42.668;23.396;2022-07-23T08:02:43;15.43;;;10.13;;
8058;SDS011;4072;42.668;23.396;2022-07-23T08:05:12;17.25;;;11.07;;
8058;SDS011;4072;42.668;23.396;2022-07-23T08:07:40;12.93;;;9.75;;
8058;SDS011;4072;42.668;23.396;2022-07-23T08:10:08;16.00;;;10.10;;
8058;SDS011;4072;42.668;23.396;2022-07-23T08:12:45;11.85;;;9.70;;
8058;SDS011;4072;42.668;23.396;2022-07-23T08:15:14;16.60;;;9.57;;
8058;SDS011;4072;42.668;23.396;2022-07-23T08:17:44;15.18;;;9.88;;
8058;SDS011;4072;42.668;23.396;2022-07-23T08:20:13;12.18;;;9.38;;
8058;SDS011;4072;42.668;23.396;2022-07-23T08:22:42;18.02;;;10.57;;
8058;SDS011;4072;42.668;23.396;2022-07-23T08:25:10;17.50;;;8.43;;
8058;SDS011;4072;42.668;23.396;2022-07-23T08:27:38;14.50;;;9.02;;
8058;SDS011;4072;42.668;23.396;2022-07-23T08:30:10;11.38;;;7.97;;
8058;SDS011;4072;42.668;23.396;2022-07-23T08:32:48;12.13;;;8.38;;
8058;SDS011;4072;42.668;23.396;2022-07-23T08:35:16;9.48;;;7.53;;
8058;SDS011;4072;42.668;23.396;2022-07-23T08:37:44;11.88;;;7.78;;
8058;SDS011;4072;42.668;23.396;2022-07-23T08:40:12;14.73;;;8.90;;
8058;SDS011;4072;42.668;23.396;2022-07-23T08:42:40;8.77;;;7.18;;
8058;SDS011;4072;42.668;23.396;2022-07-23T08:45:09;12.73;;;7.65;;
8058;SDS011;4072;42.668;23.396;2022-07-23T08:47:39;11.18;;;7.65;;
8058;SDS011;4072;42.668;23.396;2022-07-23T08:50:08;14.63;;;7.38;;
8058;SDS011;4072;42.668;23.396;2022-07-23T08:52:37;10.20;;;7.15;;
8058;SDS011;4072;42.668;23.396;2022-07-23T08:55:06;11.60;;;7.63;;
8058;SDS011;4072;42.668;23.396;2022-07-23T08:57:35;9.20;;;7.00;;
8058;SDS011;4072;42.668;23.396;2022-07-23T09:00:03;16.80;;;7.82;;
8058;SDS011;4072;42.668;23.396;2022-07-23T09:02:32;13.40;;;8.02;;
8058;SDS011;4072;42.668;23.396;2022-07-23T09:05:06;7.93;;;6.90;;
8058;SDS011;4072;42.668;23.396;2022-07-23T09:07:34;10.55;;;7.40;;
8058;SDS011;4072;42.668;23.396;2022-07-23T09:10:08;9.98;;;7.75;;
8058;SDS011;4072;42.668;23.396;2022-07-23T09:12:37;10.68;;;7.93;;
8058;SDS011;4072;42.668;23.396;2022-07-23T09:15:05;10.15;;;7.43;;
8058;SDS011;4072;42.668;23.396;2022-07-23T09:17:39;12.15;;;7.38;;
8058;SDS011;4072;42.668;23.396;2022-07-23T09:20:08;13.48;;;7.35;;
8058;SDS011;4072;42.668;23.396;2022-07-23T09:22:37;9.57;;;7.40;;
8058;SDS011;4072;42.668;23.396;2022-07-23T09:25:09;10.20;;;7.20;;
8058;SDS011;4072;42.668;23.396;2022-07-23T09:27:49;9.93;;;7.32;;
8058;SDS011;4072;42.668;23.396;2022-07-23T09:30:20;10.75;;;6.85;;
8058;SDS011;4072;42.668;23.396;2022-07-23T09:35:58;12.90;;;7.55;;
8058;SDS011;4072;42.668;23.396;2022-07-23T09:38:26;13.90;;;7.53;;
8058;SDS011;4072;42.668;23.396;2022-07-23T09:41:06;11.95;;;7.63;;
8058;SDS011;4072;42.668;23.396;2022-07-23T09:43:34;7.93;;;6.50;;
8058;SDS011;4072;42.668;23.396;2022-07-23T09:46:18;9.68;;;6.40;;
8058;SDS011;4072;42.668;23.396;2022-07-23T09:48:47;9.07;;;6.97;;
8058;SDS011;4072;42.668;23.396;2022-07-23T09:51:24;8.98;;;6.47;;
8058;SDS011;4072;42.668;23.396;2022-07-23T09:53:56;9.00;;;6.82;;
8058;SDS011;4072;42.668;23.396;2022-07-23T09:56:24;10.07;;;7.38;;
8058;SDS011;4072;42.668;23.396;2022-07-23T09:58:54;8.00;;;6.32;;
8058;SDS011;4072;42.668;23.396;2022-07-23T10:01:30;7.18;;;6.22;;
8058;SDS011;4072;42.668;23.396;2022-07-23T10:03:59;7.20;;;5.85;;
8058;SDS011;4072;42.668;23.396;2022-07-23T10:06:29;9.32;;;6.28;;
8058;SDS011;4072;42.668;23.396;2022-07-23T10:08:58;10.95;;;5.88;;
8058;SDS011;4072;42.668;23.396;2022-07-23T10:11:27;7.63;;;5.57;;
8058;SDS011;4072;42.668;23.396;2022-07-23T10:13:56;8.75;;;6.03;;
8058;SDS011;4072;42.668;23.396;2022-07-23T10:16:25;13.48;;;7.47;;
8058;SDS011;4072;42.668;23.396;2022-07-23T10:18:53;8.50;;;5.32;;
8058;SDS011;4072;42.668;23.396;2022-07-23T10:21:24;10.82;;;6.78;;
8058;SDS011;4072;42.668;23.396;2022-07-23T10:24:01;10.38;;;6.10;;
8058;SDS011;4072;42.668;23.396;2022-07-23T10:26:34;11.00;;;7.18;;
8058;SDS011;4072;42.668;23.396;2022-07-23T10:29:10;12.18;;;7.50;;
8058;SDS011;4072;42.668;23.396;2022-07-23T10:31:45;10.48;;;6.25;;
8058;SDS011;4072;42.668;23.396;2022-07-23T10:34:29;15.50;;;7.18;;
8058;SDS011;4072;42.668;23.396;2022-07-23T10:36:59;23.08;;;8.30;;
8058;SDS011;4072;42.668;23.396;2022-07-23T10:39:32;9.18;;;7.22;;
8058;SDS011;4072;42.668;23.396;2022-07-23T10:42:09;12.35;;;6.88;;
8058;SDS011;4072;42.668;23.396;2022-07-23T10:44:39;19.42;;;7.13;;
8058;SDS011;4072;42.668;23.396;2022-07-23T10:47:09;8.65;;;5.65;;
8058;SDS011;4072;42.668;23.396;2022-07-23T10:49:54;7.13;;;5.75;;
8058;SDS011;4072;42.668;23.396;2022-07-23T10:52:42;7.72;;;6.05;;
8058;SDS011;4072;42.668;23.396;2022-07-23T10:58:18;10.32;;;5.90;;
8058;SDS011;4072;42.668;23.396;2022-07-23T11:00:47;9.13;;;6.45;;
8058;SDS011;4072;42.668;23.396;2022-07-23T11:03:29;11.55;;;6.72;;
8058;SDS011;4072;42.668;23.396;2022-07-23T11:05:58;7.80;;;6.07;;
8058;SDS011;4072;42.668;23.396;2022-07-23T11:08:26;9.77;;;6.03;;
8058;SDS011;4072;42.668;23.396;2022-07-23T11:10:55;8.98;;;6.03;;
8058;SDS011;4072;42.668;23.396;2022-07-23T11:13:29;10.95;;;5.80;;
8058;SDS011;4072;42.668;23.396;2022-07-23T11:18:58;15.43;;;8.43;;
8058;SDS011;4072;42.668;23.396;2022-07-23T11:24:16;15.07;;;7.28;;
8058;SDS011;4072;42.668;23.396;2022-07-23T11:26:45;11.60;;;6.13;;
8058;SDS011;4072;42.668;23.396;2022-07-23T11:32:04;17.55;;;7.25;;
8058;SDS011;4072;42.668;23.396;2022-07-23T11:34:32;12.07;;;5.63;;
8058;SDS011;4072;42.668;23.396;2022-07-23T11:37:02;10.80;;;5.50;;
8058;SDS011;4072;42.668;23.396;2022-07-23T11:39:31;18.08;;;6.60;;
8058;SDS011;4072;42.668;23.396;2022-07-23T11:41:59;13.98;;;6.43;;
8058;SDS011;4072;42.668;23.396;2022-07-23T11:44:28;9.02;;;6.10;;
8058;SDS011;4072;42.668;23.396;2022-07-23T11:46:56;7.47;;;5.75;;
8058;SDS011;4072;42.668;23.396;2022-07-23T11:49:26;10.85;;;6.20;;
8058;SDS011;4072;42.668;23.396;2022-07-23T11:52:04;8.23;;;5.43;;
8058;SDS011;4072;42.668;23.396;2022-07-23T11:54:33;8.07;;;5.30;;
8058;SDS011;4072;42.668;23.396;2022-07-23T11:57:05;14.43;;;5.80;;
8058;SDS011;4072;42.668;23.396;2022-07-23T11:59:33;8.20;;;5.20;;
8058;SDS011;4072;42.668;23.396;2022-07-23T12:02:03;10.20;;;5.63;;
8058;SDS011;4072;42.668;23.396;2022-07-23T12:04:40;7.75;;;5.28;;
8058;SDS011;4072;42.668;23.396;2022-07-23T12:07:22;11.30;;;6.38;;
8058;SDS011;4072;42.668;23.396;2022-07-23T12:09:50;7.10;;;5.60;;
8058;SDS011;4072;42.668;23.396;2022-07-23T12:12:18;10.48;;;5.97;;
8058;SDS011;4072;42.668;23.396;2022-07-23T12:14:47;9.30;;;5.60;;
8058;SDS011;4072;42.668;23.396;2022-07-23T12:17:15;9.65;;;5.22;;
8058;SDS011;4072;42.668;23.396;2022-07-23T12:19:45;12.40;;;5.63;;
8058;SDS011;4072;42.668;23.396;2022-07-23T12:22:15;8.32;;;5.60;;
8058;SDS011;4072;42.668;23.396;2022-07-23T12:24:52;12.05;;;5.75;;
8058;SDS011;4072;42.668;23.396;2022-07-23T12:27:20;9.23;;;6.03;;
8058;SDS011;4072;42.668;23.396;2022-07-23T12:29:48;12.43;;;6.53;;
8058;SDS011;4072;42.668;23.396;2022-07-23T12:32:20;22.85;;;7.35;;
8058;SDS011;4072;42.668;23.396;2022-07-23T12:34:50;14.63;;;6.57;;
8058;SDS011;4072;42.668;23.396;2022-07-23T12:37:27;12.73;;;6.10;;
8058;SDS011;4072;42.668;23.396;2022-07-23T12:39:56;12.32;;;5.43;;
8058;SDS011;4072;42.668;23.396;2022-07-23T12:42:24;10.90;;;5.75;;
8058;SDS011;4072;42.668;23.396;2022-07-23T12:45:07;10.63;;;5.88;;
8058;SDS011;4072;42.668;23.396;2022-07-23T12:47:55;5.72;;;5.13;;
8058;SDS011;4072;42.668;23.396;2022-07-23T12:53:15;12.77;;;5.80;;
8058;SDS011;4072;42.668;23.396;2022-07-23T12:55:50;13.40;;;6.60;;
8058;SDS011;4072;42.668;23.396;2022-07-23T12:58:41;15.57;;;6.45;;
8058;SDS011;4072;42.668;23.396;2022-07-23T13:01:10;12.38;;;7.07;;
8058;SDS011;4072;42.668;23.396;2022-07-23T13:03:39;10.30;;;5.85;;
8058;SDS011;4072;42.668;23.396;2022-07-23T13:06:07;13.90;;;7.03;;
8058;SDS011;4072;42.668;23.396;2022-07-23T13:08:38;13.88;;;7.10;;
8058;SDS011;4072;42.668;23.396;2022-07-23T13:11:06;8.88;;;5.63;;
8058;SDS011;4072;42.668;23.396;2022-07-23T13:13:34;14.18;;;6.78;;
8058;SDS011;4072;42.668;23.396;2022-07-23T13:16:02;9.13;;;5.55;;
8058;SDS011;4072;42.668;23.396;2022-07-23T13:18:36;10.23;;;5.65;;
8058;SDS011;4072;42.668;23.396;2022-07-23T13:21:05;11.30;;;5.55;;
8058;SDS011;4072;42.668;23.396;2022-07-23T13:23:34;13.05;;;6.57;;
8058;SDS011;4072;42.668;23.396;2022-07-23T13:26:04;10.85;;;7.80;;
8058;SDS011;4072;42.668;23.396;2022-07-23T13:28:31;12.60;;;6.45;;
8058;SDS011;4072;42.668;23.396;2022-07-23T13:31:01;10.02;;;6.45;;
8058;SDS011;4072;42.668;23.396;2022-07-23T13:33:29;10.18;;;5.90;;
8058;SDS011;4072;42.668;23.396;2022-07-23T13:35:57;14.95;;;6.97;;
8058;SDS011;4072;42.668;23.396;2022-07-23T13:38:25;11.65;;;5.65;;
8058;SDS011;4072;42.668;23.396;2022-07-23T13:40:53;12.77;;;6.50;;
8058;SDS011;4072;42.668;23.396;2022-07-23T13:43:24;14.55;;;7.70;;
8058;SDS011;4072;42.668;23.396;2022-07-23T13:45:58;8.43;;;4.78;;
8058;SDS011;4072;42.668;23.396;2022-07-23T13:48:26;10.32;;;5.45;;
8058;SDS011;4072;42.668;23.396;2022-07-23T13:50:55;9.55;;;5.45;;
8058;SDS011;4072;42.668;23.396;2022-07-23T13:53:23;11.10;;;5.38;;
8058;SDS011;4072;42.668;23.396;2022-07-23T13:55:53;12.23;;;5.90;;
8058;SDS011;4072;42.668;23.396;2022-07-23T13:58:21;10.75;;;5.68;;
8058;SDS011;4072;42.668;23.396;2022-07-23T14:00:52;8.68;;;4.93;;
8058;SDS011;4072;42.668;23.396;2022-07-23T14:03:21;8.07;;;4.78;;
8058;SDS011;4072;42.668;23.396;2022-07-23T14:05:51;9.93;;;5.65;;
8058;SDS011;4072;42.668;23.396;2022-07-23T14:08:22;8.45;;;5.47;;
8058;SDS011;4072;42.668;23.396;2022-07-23T14:10:51;12.35;;;5.50;;
8058;SDS011;4072;42.668;23.396;2022-07-23T14:13:19;9.82;;;5.70;;
8058;SDS011;4072;42.668;23.396;2022-07-23T14:15:47;14.07;;;5.53;;
8058;SDS011;4072;42.668;23.396;2022-07-23T14:18:18;10.93;;;5.57;;
8058;SDS011;4072;42.668;23.396;2022-07-23T14:20:47;7.88;;;5.13;;
8058;SDS011;4072;42.668;23.396;2022-07-23T14:23:15;8.30;;;5.45;;
8058;SDS011;4072;42.668;23.396;2022-07-23T14:25:42;11.15;;;5.22;;
8058;SDS011;4072;42.668;23.396;2022-07-23T14:28:12;8.68;;;5.13;;
8058;SDS011;4072;42.668;23.396;2022-07-23T14:30:40;13.60;;;5.38;;
8058;SDS011;4072;42.668;23.396;2022-07-23T14:33:10;6.97;;;4.78;;
8058;SDS011;4072;42.668;23.396;2022-07-23T14:35:39;11.45;;;5.22;;
8058;SDS011;4072;42.668;23.396;2022-07-23T14:38:07;7.28;;;4.43;;
8058;SDS011;4072;42.668;23.396;2022-07-23T14:40:39;7.05;;;5.20;;
8058;SDS011;4072;42.668;23.396;2022-07-23T14:43:07;10.38;;;5.00;;
8058;SDS011;4072;42.668;23.396;2022-07-23T14:45:37;12.57;;;5.75;;
8058;SDS011;4072;42.668;23.396;2022-07-23T14:48:07;7.10;;;4.95;;
8058;SDS011;4072;42.668;23.396;2022-07-23T14:50:34;8.75;;;4.30;;
8058;SDS011;4072;42.668;23.396;2022-07-23T14:53:04;10.65;;;4.70;;
8058;SDS011;4072;42.668;23.396;2022-07-23T14:55:33;9.73;;;4.68;;
8058;SDS011;4072;42.668;23.396;2022-07-23T14:58:01;9.45;;;5.15;;
8058;SDS011;4072;42.668;23.396;2022-07-23T15:00:31;7.65;;;5.57;;
8058;SDS011;4072;42.668;23.396;2022-07-23T15:02:59;8.85;;;5.97;;
8058;SDS011;4072;42.668;23.396;2022-07-23T15:05:27;9.52;;;5.55;;
8058;SDS011;4072;42.668;23.396;2022-07-23T15:07:55;8.68;;;5.97;;
8058;SDS011;4072;42.668;23.396;2022-07-23T15:10:25;9.93;;;5.70;;
8058;SDS011;4072;42.668;23.396;2022-07-23T15:12:53;12.00;;;6.53;;
8058;SDS011;4072;42.668;23.396;2022-07-23T15:15:21;7.72;;;5.68;;
8058;SDS011;4072;42.668;23.396;2022-07-23T15:17:49;10.65;;;5.85;;
8058;SDS011;4072;42.668;23.396;2022-07-23T15:20:18;7.10;;;5.60;;
8058;SDS011;4072;42.668;23.396;2022-07-23T15:23:01;8.80;;;5.75;;
8058;SDS011;4072;42.668;23.396;2022-07-23T15:25:31;7.30;;;5.93;;